Time;durP1;ratioP1;P1;durP2;ratioP2;P2;SDS_P1;SDS_P2;PMS_P1;PMS_P2;Temp;Humidity;BMP_temperature;BMP_pressure;BME280_temperature;BME280_humidity;BME280_pressure;Samples;Min_cycle;Max_cycle;Signal;HPM_P1;HPM_P2
2023/06/06 00:00:32;;;;;;;2.30;1.30;;;;;;;23.49;33.40;101139.04;105388;1297;67177;-86
2023/06/06 00:02:59;;;;;;;2.20;1.30;;;;;;;23.49;33.41;101138.33;105397;1297;67281;-87
2023/06/06 00:07:58;;;;;;;1.70;1.20;;;;;;;23.48;33.39;101141.26;105674;1297;68121;-88
2023/06/06 00:10:24;;;;;;;2.40;1.10;;;;;;;23.49;33.36;101143.26;105403;1297;68132;-87
2023/06/06 00:12:52;;;;;;;1.40;1.00;;;;;;;23.49;33.46;101143.56;105640;1297;67999;-88
2023/06/06 00:15:19;;;;;;;2.30;1.20;;;;;;;23.48;33.31;101139.81;105517;1298;68584;-88
2023/06/06 00:17:55;;;;;;;2.60;1.50;;;;;;;23.48;33.40;101144.02;105563;1297;67731;-88
2023/06/06 00:23:04;;;;;;;;;;;;;;;23.48;33.47;101143.82;105615;1300;68418;-87
2023/06/06 00:25:30;;;;;;;1.80;1.20;;;;;;;23.44;33.57;101142.55;105526;1297;67722;-87
2023/06/06 00:27:56;;;;;;;2.50;1.20;;;;;;;23.45;33.52;101136.54;105431;1301;67755;-87
2023/06/06 00:30:22;;;;;;;1.90;1.30;;;;;;;23.45;33.46;101134.73;105520;1297;68709;-87
2023/06/06 00:32:48;;;;;;;1.20;1.10;;;;;;;23.45;33.50;101133.86;105742;1300;68361;-87
2023/06/06 00:35:14;;;;;;;2.00;1.40;;;;;;;23.46;33.52;101131.30;105451;1297;67954;-87
2023/06/06 00:37:40;;;;;;;1.80;1.40;;;;;;;23.45;33.58;101135.05;105678;1298;67939;-87
2023/06/06 00:40:06;;;;;;;2.00;1.10;;;;;;;23.46;33.48;101136.64;105517;1297;67398;-88
2023/06/06 00:42:32;;;;;;;2.70;1.40;;;;;;;23.44;33.51;101133.65;105858;1297;67045;-87
2023/06/06 00:44:58;;;;;;;1.20;1.10;;;;;;;23.45;33.55;101132.89;105850;1300;67220;-88
2023/06/06 00:49:51;;;;;;;2.20;1.10;;;;;;;23.45;33.55;101134.48;106015;1296;68127;-87
2023/06/06 00:52:17;;;;;;;1.80;1.20;;;;;;;23.45;33.52;101137.55;105674;1297;69090;-88
2023/06/06 00:54:42;;;;;;;2.30;1.40;;;;;;;23.44;33.55;101132.41;105498;1297;68484;-88
2023/06/06 00:57:09;;;;;;;1.90;1.20;;;;;;;23.45;33.61;101133.71;105452;1297;67835;-88
2023/06/06 00:59:36;;;;;;;2.80;1.40;;;;;;;23.44;33.64;101136.48;105587;1296;67950;-88
2023/06/06 01:02:04;;;;;;;1.50;1.20;;;;;;;23.44;33.56;101138.58;105515;1297;67821;-88
2023/06/06 01:04:29;;;;;;;1.70;1.30;;;;;;;23.44;33.69;101140.70;105651;1297;69404;-88
2023/06/06 01:06:57;;;;;;;2.40;1.30;;;;;;;23.44;33.61;101141.36;105452;1297;67842;-89
2023/06/06 01:09:22;;;;;;;1.40;1.20;;;;;;;23.44;33.60;101143.36;105512;1297;67171;-89
2023/06/06 01:11:55;;;;;;;2.60;1.30;;;;;;;23.43;33.62;101138.48;105521;1297;67812;-88
2023/06/06 01:14:35;;;;;;;2.40;1.40;;;;;;;23.43;33.61;101138.48;105599;1297;75485;-93
2023/06/06 01:17:07;;;;;;;2.60;1.50;;;;;;;23.42;33.74;101136.21;105475;1297;72851;-88
2023/06/06 01:19:34;;;;;;;1.50;1.20;;;;;;;23.43;33.79;101139.66;105480;1297;67575;-88
2023/06/06 01:22:03;;;;;;;2.60;1.20;;;;;;;23.42;33.67;101139.52;105392;1302;67838;-88
2023/06/06 01:24:29;;;;;;;1.70;1.20;;;;;;;23.42;33.69;101138.17;105540;1297;67968;-88
2023/06/06 01:26:54;;;;;;;4.50;1.20;;;;;;;23.41;33.74;101137.96;105652;1297;68051;-89
2023/06/06 01:29:21;;;;;;;2.70;1.50;;;;;;;23.41;33.74;101137.66;105518;1296;67417;-89
2023/06/06 01:31:53;;;;;;;1.90;1.40;;;;;;;23.41;33.74;101127.69;105593;1296;68094;-88
2023/06/06 01:34:33;;;;;;;2.30;1.30;;;;;;;23.41;33.79;101129.85;105460;1297;68115;-88
2023/06/06 01:37:11;;;;;;;1.50;1.00;;;;;;;23.40;33.88;101133.44;105551;1297;68471;-88
2023/06/06 01:39:38;;;;;;;3.20;1.60;;;;;;;23.40;33.85;101127.43;105523;1297;83231;-89
2023/06/06 01:42:05;;;;;;;2.10;1.20;;;;;;;23.40;33.84;101132.83;105544;1297;72388;-88
2023/06/06 01:44:30;;;;;;;1.60;1.20;;;;;;;23.39;33.95;101127.38;105522;1297;67729;-89
2023/06/06 01:46:56;;;;;;;3.30;1.30;;;;;;;23.39;33.83;101130.05;105483;1297;67786;-89
2023/06/06 01:49:25;;;;;;;1.30;1.10;;;;;;;23.39;33.85;101134.17;105436;1297;67871;-88
2023/06/06 01:51:52;;;;;;;2.70;1.40;;;;;;;23.39;33.92;101127.38;105460;1297;83801;-88
2023/06/06 01:54:18;;;;;;;3.50;1.40;;;;;;;23.39;33.98;101127.48;105610;1297;72545;-89
2023/06/06 01:56:44;;;;;;;2.00;1.30;;;;;;;23.38;33.91;101123.33;105508;1297;67748;-88
2023/06/06 01:59:10;;;;;;;1.70;1.20;;;;;;;23.38;33.95;101124.25;105531;1297;67893;-89
2023/06/06 02:01:35;;;;;;;1.70;1.20;;;;;;;23.38;34.01;101120.75;105478;1297;67196;-88
2023/06/06 02:04:04;;;;;;;1.70;1.10;;;;;;;23.37;34.07;101122.09;105498;1297;67835;-88
2023/06/06 02:06:30;;;;;;;2.10;1.20;;;;;;;23.37;34.06;101125.02;105509;1296;67802;-88
2023/06/06 02:09:00;;;;;;;2.70;1.30;;;;;;;23.37;34.03;101123.33;105482;1297;67702;-88
2023/06/06 02:11:26;;;;;;;2.50;1.20;;;;;;;23.37;34.15;101127.64;105548;1297;67696;-89
2023/06/06 02:13:52;;;;;;;2.60;1.40;;;;;;;23.37;34.18;101127.64;105474;1302;67748;-88
2023/06/06 02:16:18;;;;;;;2.20;1.50;;;;;;;23.37;34.04;101127.38;105534;1296;67788;-88
2023/06/06 02:18:44;;;;;;;1.80;1.20;;;;;;;23.36;34.07;101130.41;105534;1297;68084;-88
2023/06/06 02:21:12;;;;;;;1.80;1.30;;;;;;;23.36;34.14;101129.54;105686;1296;68527;-88
2023/06/06 02:23:38;;;;;;;4.00;1.60;;;;;;;23.36;34.07;101131.75;105478;1297;67860;-89
2023/06/06 02:26:07;;;;;;;2.80;1.30;;;;;;;23.35;34.11;101130.11;105602;1296;67764;-92
2023/06/06 02:28:32;;;;;;;2.20;1.10;;;;;;;23.35;33.99;101127.90;105427;1297;74344;-88
2023/06/06 02:30:58;;;;;;;2.40;1.30;;;;;;;23.35;33.98;101130.67;105614;1295;67038;-87
2023/06/06 02:33:24;;;;;;;1.80;1.50;;;;;;;23.35;34.06;101136.42;105552;1297;67179;-88
2023/06/06 02:35:50;;;;;;;2.50;1.40;;;;;;;23.34;34.19;101142.48;105627;1297;67932;-88
2023/06/06 02:38:15;;;;;;;3.40;1.50;;;;;;;23.34;34.09;101142.58;105642;1296;67104;-88
2023/06/06 02:40:46;;;;;;;3.20;1.40;;;;;;;23.34;34.08;101141.88;105468;1297;67859;-88
2023/06/06 02:43:11;;;;;;;2.20;1.50;;;;;;;23.33;34.06;101141.61;105513;1297;67816;-87
2023/06/06 02:45:40;;;;;;;2.40;1.30;;;;;;;23.32;34.02;101146.27;105437;1295;67206;-88
2023/06/06 02:48:06;;;;;;;2.90;1.40;;;;;;;23.32;34.05;101144.18;105510;1296;67708;-87
2023/06/06 02:50:31;;;;;;;2.80;1.30;;;;;;;23.32;34.08;101148.39;105517;1297;67826;-88
2023/06/06 02:53:06;;;;;;;4.40;1.80;;;;;;;23.31;34.17;101143.77;105591;1296;67513;-94
2023/06/06 02:55:32;;;;;;;4.60;1.60;;;;;;;23.31;34.03;101142.64;105497;1297;68034;-88
2023/06/06 02:58:02;;;;;;;2.20;1.40;;;;;;;23.31;34.08;101144.73;105535;1299;67670;-88
2023/06/06 03:00:31;;;;;;;16.10;2.20;;;;;;;23.31;34.19;101155.73;105502;1297;73934;-88
2023/06/06 03:03:03;;;;;;;7.40;2.50;;;;;;;23.29;34.27;101156.19;105605;1297;75515;-88
2023/06/06 03:05:29;;;;;;;16.60;2.30;;;;;;;23.27;34.46;101157.77;105528;1299;67812;-88
2023/06/06 03:07:58;;;;;;;11.00;2.40;;;;;;;23.25;34.58;101163.88;105466;1297;67866;-93
2023/06/06 03:10:24;;;;;;;5.50;1.80;;;;;;;23.23;34.45;101166.19;105602;1295;67754;-87
2023/06/06 03:12:49;;;;;;;8.70;2.00;;;;;;;23.22;34.32;101165.73;105781;1295;67917;-87
2023/06/06 03:15:15;;;;;;;6.10;1.80;;;;;;;23.20;34.21;101165.74;105615;1297;67856;-87
2023/06/06 03:17:40;;;;;;;3.90;2.00;;;;;;;23.18;34.17;101165.64;105900;1296;68555;-89
2023/06/06 03:20:09;;;;;;;4.20;2.10;;;;;;;23.17;33.98;101166.62;106010;1297;69138;-90
2023/06/06 03:22:35;;;;;;;7.50;2.40;;;;;;;23.15;33.87;101163.37;105812;1297;67013;-89
2023/06/06 03:25:01;;;;;;;4.30;1.80;;;;;;;23.13;33.75;101165.98;105840;1296;67875;-89
2023/06/06 03:27:27;;;;;;;9.30;5.60;;;;;;;23.11;33.53;101159.83;105976;1296;67861;-89
2023/06/06 03:29:53;;;;;;;10.90;7.90;;;;;;;23.09;33.51;101158.49;105789;1297;67192;-89
2023/06/06 03:32:19;;;;;;;8.30;5.80;;;;;;;23.08;33.49;101159.47;105764;1295;69078;-89
2023/06/06 03:37:28;;;;;;;16.20;3.90;;;;;;;23.05;33.44;101166.13;105242;1296;553630;-87
2023/06/06 03:39:56;;;;;;;5.90;3.20;;;;;;;23.02;33.36;101164.37;105722;1295;67779;-90
2023/06/06 03:42:24;;;;;;;5.60;3.10;;;;;;;23.02;33.27;101162.01;105730;1297;67644;-89
2023/06/06 03:44:50;;;;;;;3.80;2.90;;;;;;;23.00;33.29;101159.09;105908;1293;68250;-89
2023/06/06 03:47:21;;;;;;;6.50;2.40;;;;;;;22.99;33.28;101155.45;105896;1295;67029;-89
2023/06/06 03:49:56;;;;;;;5.40;2.60;;;;;;;22.96;33.23;101151.95;105799;1288;74362;31
2023/06/06 03:52:22;;;;;;;4.10;2.60;;;;;;;22.96;33.19;101152.20;105675;1297;67104;-89
2023/06/06 03:57:36;;;;;;;9.70;2.40;;;;;;;22.93;33.11;101149.83;105468;1296;67825;-89
2023/06/06 04:00:10;;;;;;;5.20;2.30;;;;;;;22.92;33.20;101156.49;105876;1293;67248;-90
2023/06/06 04:02:42;;;;;;;5.90;2.30;;;;;;;22.92;33.20;101150.90;105576;1293;558733;-93
2023/06/06 04:05:08;;;;;;;5.10;2.60;;;;;;;22.91;33.21;101157.05;105839;1293;67123;-89
2023/06/06 04:10:05;;;;;;;5.60;2.40;;;;;;;22.92;33.26;101167.17;105959;1292;67615;-89
2023/06/06 04:12:31;;;;;;;5.00;2.30;;;;;;;22.93;33.26;101172.92;105759;1297;67893;-89
2023/06/06 04:14:58;;;;;;;7.20;2.50;;;;;;;22.92;33.35;101173.39;105865;1295;68045;-88
2023/06/06 04:17:24;;;;;;;3.00;1.90;;;;;;;22.93;33.35;101177.95;106016;1296;67039;-88
2023/06/06 04:19:53;;;;;;;4.40;2.20;;;;;;;22.94;33.44;101179.14;106075;1288;67020;-86
2023/06/06 04:22:20;;;;;;;7.00;2.30;;;;;;;22.94;33.39;101183.30;105912;1297;67582;-88
2023/06/06 04:24:46;;;;;;;6.10;2.20;;;;;;;22.95;33.46;101186.02;105899;1297;67272;-89
2023/06/06 04:27:12;;;;;;;6.60;2.70;;;;;;;22.95;33.45;101187.20;105800;1297;67644;-89
2023/06/06 04:29:41;;;;;;;8.00;2.60;;;;;;;22.96;33.40;101189.67;105795;1297;67271;-89
2023/06/06 04:32:08;;;;;;;6.50;2.00;;;;;;;22.96;33.45;101187.26;105726;1297;67215;-89
2023/06/06 04:34:45;;;;;;;6.70;2.20;;;;;;;22.96;33.46;101186.18;105862;1296;67701;-94
2023/06/06 04:37:13;;;;;;;3.80;2.30;;;;;;;22.95;33.56;101190.98;105703;1297;67772;-88
2023/06/06 04:39:39;;;;;;;6.40;2.50;;;;;;;22.95;33.55;101198.23;105684;1296;74246;-89
2023/06/06 04:42:05;;;;;;;8.60;2.40;;;;;;;22.96;33.53;101195.61;105871;1297;68091;-88
2023/06/06 04:44:32;;;;;;;7.70;2.10;;;;;;;22.96;33.53;101187.86;105443;1297;68087;-88
2023/06/06 04:47:01;;;;;;;11.00;2.50;;;;;;;22.96;33.62;101190.95;105408;1297;68353;-89
2023/06/06 04:49:40;;;;;;;9.30;2.60;;;;;;;22.96;33.56;101191.66;105413;1297;68074;-89
2023/06/06 04:52:10;;;;;;;6.20;2.30;;;;;;;22.95;33.58;101195.83;105637;1297;82248;-88
2023/06/06 04:54:40;;;;;;;11.10;2.90;;;;;;;22.95;33.66;101195.52;105745;1297;68157;-89
2023/06/06 04:57:07;;;;;;;9.60;2.60;;;;;;;22.95;33.69;101192.95;105618;1296;68371;-88
2023/06/06 04:59:33;;;;;;;11.20;2.60;;;;;;;22.95;33.77;101196.23;105324;1299;68067;-89
2023/06/06 05:02:00;;;;;;;14.00;2.40;;;;;;;22.96;33.75;101193.92;105259;1300;68630;-89
2023/06/06 05:07:00;;;;;;;8.40;2.40;;;;;;;22.98;34.18;101191.21;105403;1297;68035;-87
2023/06/06 05:09:26;;;;;;;9.60;2.60;;;;;;;22.98;34.25;101189.16;105614;1296;68074;-89
2023/06/06 05:11:56;;;;;;;10.00;2.50;;;;;;;23.00;34.42;101186.59;105860;1293;67086;-92
2023/06/06 05:21:37;;;;;;;9.30;3.00;;;;;;;23.00;34.82;101191.02;101426;1293;67779;-88
2023/06/06 05:24:03;;;;;;;10.80;2.50;;;;;;;23.01;34.92;101186.34;105795;1296;67942;-89
2023/06/06 05:33:02;;;;;;;11.50;3.20;;;;;;;23.02;35.07;101186.34;105767;1293;73128;-90
2023/06/06 05:38:15;;;;;;;12.60;3.60;;;;;;;22.98;35.13;101180.84;105968;1286;67706;31
2023/06/06 05:50:01;;;;;;;10.00;3.40;;;;;;;23.00;35.22;101183.46;105961;1290;68411;-89
2023/06/06 05:58:46;;;;;;;11.90;3.80;;;;;;;23.01;35.26;101192.90;105240;1302;74646;-86
2023/06/06 06:01:50;;;;;;;8.40;2.70;;;;;;;23.03;35.39;101196.71;104852;1300;75715;-92
2023/06/06 06:07:31;;;;;;;8.70;3.10;;;;;;;23.04;35.55;101189.33;83997;1293;66627;31
2023/06/06 06:13:27;;;;;;;9.40;3.10;;;;;;;23.07;35.67;101186.71;84307;1297;73266;-89
2023/06/06 06:18:33;;;;;;;7.90;3.40;;;;;;;23.09;35.77;101182.06;105819;1292;68598;-87
2023/06/06 06:21:03;;;;;;;9.40;3.20;;;;;;;23.11;35.89;101181.18;105600;1297;68167;-90
2023/06/06 06:23:29;;;;;;;18.60;3.50;;;;;;;23.13;35.79;101185.30;105645;1297;69197;-88
2023/06/06 06:25:55;;;;;;;14.60;3.40;;;;;;;23.13;35.87;101193.70;105548;1297;68632;-90
2023/06/06 06:28:22;;;;;;;7.80;3.40;;;;;;;23.14;35.88;101190.42;105189;1297;67866;-86
2023/06/06 06:30:48;;;;;;;12.20;3.70;;;;;;;23.15;35.89;101189.30;105506;1297;67624;-87
2023/06/06 06:36:18;;;;;;;10.80;3.70;;;;;;;23.16;35.98;101190.22;105545;1287;68034;-88
2023/06/06 06:38:51;;;;;;;9.50;3.50;;;;;;;23.17;35.82;101193.45;105659;1292;68742;-89
2023/06/06 06:41:26;;;;;;;11.60;3.70;;;;;;;23.18;35.93;101194.27;105391;1297;74458;-91
2023/06/06 06:43:54;;;;;;;9.40;3.60;;;;;;;23.19;36.00;101193.16;105568;1297;72640;-89
2023/06/06 06:46:23;;;;;;;10.10;3.60;;;;;;;23.21;35.94;101196.77;105560;1287;68418;31
2023/06/06 06:48:50;;;;;;;8.80;4.20;;;;;;;23.21;36.13;101197.45;105710;1296;67098;-89
2023/06/06 06:54:54;;;;;;;13.60;4.60;;;;;;;23.22;36.17;101202.28;105640;1296;72126;-90
2023/06/06 06:57:33;;;;;;;15.80;5.30;;;;;;;23.23;36.05;101199.05;105312;1299;71753;-91
2023/06/06 07:00:24;;;;;;;;;;;;;;;23.24;36.27;101203.72;105562;1293;68200;-90
2023/06/06 07:02:53;;;;;;;14.00;4.50;;;;;;;23.23;36.25;101202.85;105219;1299;67725;-89
2023/06/06 07:05:26;;;;;;;12.20;4.70;;;;;;;23.24;36.41;101200.23;105589;1293;74203;-88
2023/06/06 07:07:53;;;;;;;17.00;5.00;;;;;;;23.25;36.30;101197.56;105388;1296;74623;-87
2023/06/06 07:10:19;;;;;;;12.00;4.40;;;;;;;23.27;36.36;101200.05;105300;1297;325691;-88
2023/06/06 07:12:46;;;;;;;11.60;4.40;;;;;;;23.29;36.47;101201.94;105453;1297;67905;-88
2023/06/06 07:15:12;;;;;;;17.50;4.50;;;;;;;23.31;36.54;101200.35;105289;1297;68401;-85
2023/06/06 07:17:39;;;;;;;12.00;4.20;;;;;;;23.33;36.66;101207.50;105097;1299;68074;-85
2023/06/06 07:20:06;;;;;;;12.30;3.90;;;;;;;23.33;36.54;101209.55;105074;1296;68528;-87
2023/06/06 07:22:38;;;;;;;11.80;3.50;;;;;;;23.35;36.50;101210.48;105300;1296;68648;-86
2023/06/06 07:25:04;;;;;;;10.00;3.40;;;;;;;23.36;36.38;101215.45;105279;1297;69265;-87
2023/06/06 07:33:30;;;;;;;8.30;3.30;;;;;;;23.37;36.21;101211.80;105752;1296;73652;-90
2023/06/06 07:42:34;;;;;;;7.00;3.30;;;;;;;23.38;36.38;101203.38;105658;1299;67422;-90
2023/06/06 07:45:10;;;;;;;13.50;3.50;;;;;;;23.39;36.45;101206.48;105672;1297;67982;-91
2023/06/06 07:47:38;;;;;;;10.80;3.00;;;;;;;23.40;36.26;101203.33;105630;1301;68491;-89
2023/06/06 07:53:37;;;;;;;8.50;2.90;;;;;;;23.40;36.12;101200.98;105796;1295;67824;-89
2023/06/06 07:56:30;;;;;;;7.60;2.70;;;;;;;23.42;35.90;101199.84;105710;1297;68036;-89
2023/06/06 07:58:57;;;;;;;10.40;3.00;;;;;;;23.42;35.72;101194.35;105614;1293;67645;-89
2023/06/06 08:01:46;;;;;;;10.60;3.20;;;;;;;23.43;35.71;101192.52;105180;1297;554951;-92
2023/06/06 08:04:15;;;;;;;11.90;3.00;;;;;;;23.44;35.71;101193.48;105393;1296;68309;-88
2023/06/06 08:09:25;;;;;;;12.70;3.70;;;;;;;23.47;35.56;101197.49;105541;1297;68321;-89
2023/06/06 08:11:51;;;;;;;6.50;2.90;;;;;;;23.48;35.44;101190.71;105268;1295;67923;-91
2023/06/06 08:14:37;;;;;;;5.80;2.70;;;;;;;23.49;35.25;101190.30;105376;1296;73345;-90
2023/06/06 08:17:04;;;;;;;8.50;2.80;;;;;;;23.49;35.12;101190.92;105471;1296;67697;-89
2023/06/06 08:19:39;;;;;;;13.40;3.10;;;;;;;23.50;35.08;101182.23;105464;1299;68920;-92
2023/06/06 08:22:24;;;;;;;14.90;2.90;;;;;;;23.50;35.01;101175.77;105260;1290;67196;-90
2023/06/06 08:24:53;;;;;;;8.30;3.00;;;;;;;23.51;34.95;101176.53;105363;1299;67908;31
2023/06/06 08:27:33;;;;;;;8.20;3.00;;;;;;;23.51;34.83;101168.58;105591;1297;83428;-90
2023/06/06 08:30:00;;;;;;;10.90;3.20;;;;;;;23.50;34.85;101168.88;105411;1295;68679;-86
2023/06/06 08:32:26;;;;;;;6.90;2.60;;;;;;;23.50;34.74;101166.21;105187;1297;68543;-87
2023/06/06 08:34:52;;;;;;;9.20;3.20;;;;;;;23.51;34.76;101163.85;105356;1297;68374;-86
2023/06/06 08:37:18;;;;;;;7.90;2.90;;;;;;;23.51;34.63;101165.80;105523;1298;68908;-88
2023/06/06 08:39:52;;;;;;;9.60;4.00;;;;;;;23.51;34.58;101167.25;105577;1297;69002;-92
2023/06/06 08:42:20;;;;;;;8.20;3.00;;;;;;;23.51;34.50;101160.67;105352;1298;69421;-88
2023/06/06 08:44:46;;;;;;;8.90;3.30;;;;;;;23.51;34.50;101159.84;105613;1293;67903;-87
2023/06/06 08:50:31;;;;;;;6.80;3.10;;;;;;;23.51;34.20;101158.21;105684;1290;68170;-88
2023/06/06 08:53:04;;;;;;;7.10;3.20;;;;;;;23.52;34.15;101157.34;105399;1293;67461;-89
